Time;durP1;ratioP1;P1;durP2;ratioP2;P2;SDS_P1;SDS_P2;PMS_P1;PMS_P2;Temp;Humidity;BMP_temperature;BMP_pressure;BME280_temperature;BME280_humidity;BME280_pressure;Samples;Min_cycle;Max_cycle;Signal;HPM_P1;HPM_P2
2022/09/02 00:00:50;;;;;;;;;;;15.70;99.90;;;;;;5021685;28;19905;-75
2022/09/02 00:03:15;;;;;;;;;;;15.70;99.90;;;;;;5022660;28;19905;-76
2022/09/02 00:05:41;;;;;;;;;;;15.70;99.90;;;;;;5037829;28;19928;-75
2022/09/02 00:08:07;;;;;;;;;;;15.60;99.90;;;;;;5038185;28;20197;-76
2022/09/02 00:10:34;;;;;;;;;;;15.60;99.90;;;;;;5038116;28;19909;-75
2022/09/02 00:13:00;;;;;;;;;;;15.60;99.90;;;;;;5022596;28;20142;-76
2022/09/02 00:15:26;;;;;;;;;;;15.60;99.90;;;;;;5038036;28;19905;-76
2022/09/02 00:17:52;;;;;;;;;;;15.60;99.90;;;;;;5022635;28;19951;-76
2022/09/02 00:20:18;;;;;;;;;;;15.50;99.90;;;;;;5040980;28;19946;-76
2022/09/02 00:22:44;;;;;;;;;;;15.50;99.90;;;;;;5024659;28;19913;-76
2022/09/02 00:25:10;;;;;;;;;;;15.50;99.90;;;;;;5041204;28;19905;-76
2022/09/02 00:27:35;;;;;;;;;;;15.50;99.90;;;;;;5024767;28;19928;-76
2022/09/02 00:30:01;;;;;;;;;;;15.50;99.90;;;;;;5042215;28;19905;-76
2022/09/02 00:32:26;;;;;;;;;;;15.50;99.90;;;;;;5042205;28;19909;-75
2022/09/02 00:34:54;;;;;;;;;;;15.50;99.90;;;;;;5040777;28;19912;-76
2022/09/02 00:37:20;;;;;;;;;;;15.50;99.90;;;;;;5024662;28;19909;-76
2022/09/02 00:39:45;;;;;;;;;;;15.50;99.90;;;;;;5041146;28;19955;-75
2022/09/02 00:42:11;;;;;;;;;;;15.50;99.90;;;;;;5042149;28;20108;-76
2022/09/02 00:44:37;;;;;;;;;;;15.50;99.90;;;;;;5041906;28;19936;-76
2022/09/02 00:47:02;;;;;;;;;;;15.50;99.90;;;;;;5045098;28;19905;-75
2022/09/02 00:49:32;;;;;;;;;;;15.40;99.90;;;;;;5045559;28;19912;-76
2022/09/02 00:52:22;;;;;;;;;;;15.40;99.90;;;;;;5028497;28;20112;-76
2022/09/02 00:54:53;;;;;;;;;;;15.40;99.90;;;;;;5044723;28;19928;-75
2022/09/02 00:57:22;;;;;;;;;;;15.30;99.90;;;;;;5028294;28;19913;-76
2022/09/02 00:59:56;;;;;;;;;;;15.30;99.90;;;;;;5028529;28;19923;-76
2022/09/02 01:02:24;;;;;;;;;;;15.30;99.90;;;;;;5044685;28;20104;-75
2022/09/02 01:04:50;;;;;;;;;;;15.30;99.90;;;;;;5044030;28;19912;-75
2022/09/02 01:07:15;;;;;;;;;;;15.20;99.90;;;;;;5044438;28;19905;-76
2022/09/02 01:09:41;;;;;;;;;;;15.20;99.90;;;;;;5045463;28;19944;-75
2022/09/02 01:12:07;;;;;;;;;;;15.20;99.90;;;;;;5045750;28;19909;-76
2022/09/02 01:14:34;;;;;;;;;;;15.20;99.90;;;;;;5027712;28;20108;-76
2022/09/02 01:17:00;;;;;;;;;;;15.10;99.90;;;;;;5027933;28;19932;-76
2022/09/02 01:19:33;;;;;;;;;;;15.10;99.90;;;;;;5043944;28;19911;-75
2022/09/02 01:21:59;;;;;;;;;;;15.00;99.90;;;;;;5028057;28;19913;-76
2022/09/02 01:24:26;;;;;;;;;;;15.00;99.90;;;;;;5045044;28;19951;-76
2022/09/02 01:26:53;;;;;;;;;;;15.00;99.90;;;;;;5027924;28;20243;-75
2022/09/02 01:29:19;;;;;;;;;;;15.00;99.90;;;;;;5027508;28;19959;-75
2022/09/02 01:31:44;;;;;;;;;;;15.00;99.90;;;;;;5044044;28;19913;-75
2022/09/02 01:34:10;;;;;;;;;;;14.90;99.90;;;;;;5043414;28;19920;-75
2022/09/02 01:36:39;;;;;;;;;;;14.90;99.90;;;;;;5043898;28;20228;-76
2022/09/02 01:39:06;;;;;;;;;;;14.90;99.90;;;;;;5043825;28;19908;-75
2022/09/02 01:41:31;;;;;;;;;;;14.90;99.90;;;;;;5043864;28;20245;-75
2022/09/02 01:43:57;;;;;;;;;;;14.80;99.90;;;;;;5044646;28;19948;-76
2022/09/02 01:46:23;;;;;;;;;;;14.80;99.90;;;;;;5044810;28;19911;-76
2022/09/02 01:48:49;;;;;;;;;;;14.80;99.90;;;;;;5043531;28;19904;-75
2022/09/02 01:51:16;;;;;;;;;;;14.70;99.90;;;;;;5026932;28;19916;-75
2022/09/02 01:53:42;;;;;;;;;;;14.70;99.90;;;;;;5043493;28;19913;-76
2022/09/02 01:56:08;;;;;;;;;;;14.70;99.90;;;;;;5044601;28;19919;-76
2022/09/02 01:58:34;;;;;;;;;;;14.60;99.90;;;;;;5044493;28;19980;-76
2022/09/02 02:01:00;;;;;;;;;;;14.60;99.90;;;;;;5043491;28;20108;-75
2022/09/02 02:03:25;;;;;;;;;;;14.60;99.90;;;;;;5044321;28;20123;-76
2022/09/02 02:05:51;;;;;;;;;;;14.60;99.90;;;;;;5043173;28;19905;-76
2022/09/02 02:08:17;;;;;;;;;;;14.60;99.90;;;;;;5044341;28;19974;-75
2022/09/02 02:10:42;;;;;;;;;;;14.50;99.90;;;;;;5044542;28;19917;-75
2022/09/02 02:13:08;;;;;;;;;;;14.50;99.90;;;;;;5044184;28;19911;-76
2022/09/02 02:15:36;;;;;;;;;;;14.50;99.90;;;;;;5043317;28;20204;-75
2022/09/02 02:18:03;;;;;;;;;;;14.50;99.90;;;;;;5026865;28;19921;-75
2022/09/02 02:20:28;;;;;;;;;;;14.40;99.90;;;;;;5042891;28;19927;-75
2022/09/02 02:22:54;;;;;;;;;;;14.40;99.90;;;;;;5043949;28;19971;-76
2022/09/02 02:25:20;;;;;;;;;;;14.40;99.90;;;;;;5044108;28;19912;-75
2022/09/02 02:27:45;;;;;;;;;;;14.30;99.90;;;;;;5044048;28;19905;-75
2022/09/02 02:30:12;;;;;;;;;;;14.30;99.90;;;;;;5042893;28;19962;-75
2022/09/02 02:32:38;;;;;;;;;;;14.30;99.90;;;;;;5026269;28;19917;-76
2022/09/02 02:35:04;;;;;;;;;;;14.30;99.90;;;;;;5043459;28;20214;-75
2022/09/02 02:37:30;;;;;;;;;;;14.30;99.90;;;;;;5042644;28;19909;-75
2022/09/02 02:39:56;;;;;;;;;;;14.30;99.90;;;;;;5043875;28;19905;-75
2022/09/02 02:42:22;;;;;;;;;;;14.30;99.90;;;;;;5043809;28;19905;-75
2022/09/02 02:44:47;;;;;;;;;;;14.30;99.90;;;;;;5043612;28;20183;-75
2022/09/02 02:47:13;;;;;;;;;;;14.20;99.90;;;;;;5043585;28;19905;-75
2022/09/02 02:49:40;;;;;;;;;;;14.20;99.90;;;;;;5043285;28;19905;-75
2022/09/02 02:52:06;;;;;;;;;;;14.20;99.90;;;;;;5026227;28;19908;-75
2022/09/02 02:54:31;;;;;;;;;;;14.20;99.90;;;;;;5025861;28;20410;-76
2022/09/02 02:56:57;;;;;;;;;;;14.20;99.90;;;;;;5043471;28;19917;-75
2022/09/02 02:59:24;;;;;;;;;;;14.20;99.90;;;;;;5043478;28;19909;-75
2022/09/02 03:01:50;;;;;;;;;;;14.20;99.90;;;;;;5042517;28;19905;-75
2022/09/02 03:04:16;;;;;;;;;;;14.10;99.90;;;;;;5043894;28;19972;-75
2022/09/02 03:06:41;;;;;;;;;;;14.10;99.90;;;;;;5048724;28;19905;-75
2022/09/02 03:09:07;;;;;;;;;;;14.10;99.90;;;;;;5048498;28;19913;-75
2022/09/02 03:11:33;;;;;;;;;;;14.10;99.90;;;;;;5047860;28;19909;-75
2022/09/02 03:13:59;;;;;;;;;;;14.00;99.90;;;;;;5044012;28;19972;-75
2022/09/02 03:16:25;;;;;;;;;;;14.00;99.90;;;;;;5043434;28;19905;-76
2022/09/02 03:18:50;;;;;;;;;;;14.00;99.90;;;;;;5043238;28;19912;-76
2022/09/02 03:21:16;;;;;;;;;;;13.90;99.90;;;;;;5043008;28;19968;-75
2022/09/02 03:23:42;;;;;;;;;;;13.90;99.90;;;;;;5043255;28;19984;-75
2022/09/02 03:26:17;;;;;;;;;;;13.90;99.90;;;;;;5042056;28;20204;-75
2022/09/02 03:28:43;;;;;;;;;;;13.90;99.90;;;;;;5025651;28;19913;-75
2022/09/02 03:31:13;;;;;;;;;;;13.90;99.90;;;;;;5042942;28;19935;-75
2022/09/02 03:33:39;;;;;;;;;;;13.80;99.90;;;;;;5041871;28;19905;-75
2022/09/02 03:36:04;;;;;;;;;;;13.80;99.90;;;;;;5024474;28;19920;-75
2022/09/02 03:38:30;;;;;;;;;;;13.80;99.90;;;;;;5041613;28;19937;-75
2022/09/02 03:40:56;;;;;;;;;;;13.80;99.90;;;;;;5024780;28;19979;-75
2022/09/02 03:43:21;;;;;;;;;;;13.80;99.90;;;;;;5041521;28;19905;-75
2022/09/02 03:45:47;;;;;;;;;;;13.70;99.90;;;;;;5042659;28;19990;-76
2022/09/02 03:48:13;;;;;;;;;;;13.70;99.90;;;;;;5042718;28;20355;-75
2022/09/02 03:50:40;;;;;;;;;;;13.70;99.90;;;;;;5040770;28;19905;-75
2022/09/02 03:53:06;;;;;;;;;;;13.70;99.90;;;;;;5025050;28;19904;-76
2022/09/02 03:55:32;;;;;;;;;;;13.70;99.90;;;;;;5042647;28;20111;-75
2022/09/02 03:57:57;;;;;;;;;;;13.60;99.90;;;;;;5025109;28;19916;-75
2022/09/02 04:00:24;;;;;;;;;;;13.60;99.90;;;;;;5042587;28;19909;-75
2022/09/02 04:02:50;;;;;;;;;;;13.60;99.90;;;;;;5041248;28;19955;-76
2022/09/02 04:05:16;;;;;;;;;;;13.60;99.90;;;;;;5024896;28;20007;-75
2022/09/02 04:07:43;;;;;;;;;;;13.60;99.90;;;;;;5041351;28;19916;-75
2022/09/02 04:10:09;;;;;;;;;;;13.60;99.90;;;;;;5041347;28;19947;-75
2022/09/02 04:12:35;;;;;;;;;;;13.50;99.90;;;;;;5024905;28;19912;-76
2022/09/02 04:15:03;;;;;;;;;;;13.50;99.90;;;;;;5041072;28;19905;-75
2022/09/02 04:17:29;;;;;;;;;;;13.50;99.90;;;;;;5024958;28;20104;-75
2022/09/02 04:19:54;;;;;;;;;;;13.50;99.90;;;;;;5043247;28;19912;-75
2022/09/02 04:22:20;;;;;;;;;;;13.40;99.90;;;;;;5046370;28;19916;-75
2022/09/02 04:24:46;;;;;;;;;;;13.40;99.90;;;;;;5046145;28;19905;-75
2022/09/02 04:27:11;;;;;;;;;;;13.40;99.90;;;;;;5046326;28;20107;-75
2022/09/02 04:29:37;;;;;;;;;;;13.40;99.90;;;;;;5046186;28;20119;-75
2022/09/02 04:32:02;;;;;;;;;;;13.40;99.90;;;;;;5046261;28;19955;-75
2022/09/02 04:34:28;;;;;;;;;;;13.40;99.90;;;;;;5044672;28;19912;-76
2022/09/02 04:36:55;;;;;;;;;;;13.30;99.90;;;;;;5046184;28;19909;-75
2022/09/02 04:39:21;;;;;;;;;;;13.30;99.90;;;;;;5046073;28;19904;-75
2022/09/02 04:41:47;;;;;;;;;;;13.30;99.90;;;;;;5027973;28;19991;-75
2022/09/02 04:44:12;;;;;;;;;;;13.30;99.90;;;;;;5044593;28;19913;-75
2022/09/02 04:46:38;;;;;;;;;;;13.30;99.90;;;;;;5045902;28;20192;-75
2022/09/02 04:49:04;;;;;;;;;;;13.30;99.90;;;;;;5045954;28;19936;-75
2022/09/02 04:51:30;;;;;;;;;;;13.30;99.90;;;;;;5045763;28;19905;-75
2022/09/02 04:53:55;;;;;;;;;;;13.30;99.90;;;;;;5045768;28;19905;-76
2022/09/02 04:56:23;;;;;;;;;;;13.30;99.90;;;;;;5045644;28;19912;-75
2022/09/02 04:58:50;;;;;;;;;;;13.30;99.90;;;;;;5044500;28;19913;-75
2022/09/02 05:01:19;;;;;;;;;;;13.30;99.90;;;;;;5028372;28;20156;-75
2022/09/02 05:03:45;;;;;;;;;;;13.30;99.90;;;;;;5028274;28;19905;-75
2022/09/02 05:06:13;;;;;;;;;;;13.30;99.90;;;;;;5045477;28;19950;-75
2022/09/02 05:08:41;;;;;;;;;;;13.30;99.90;;;;;;5044452;28;19912;-75
2022/09/02 05:11:07;;;;;;;;;;;13.30;99.90;;;;;;5044388;28;19912;-75
2022/09/02 05:13:33;;;;;;;;;;;13.30;99.90;;;;;;5044196;28;19951;-76
2022/09/02 05:15:59;;;;;;;;;;;13.30;99.90;;;;;;5044131;28;20180;-75
2022/09/02 05:18:24;;;;;;;;;;;13.30;99.90;;;;;;5045362;28;19904;-75
2022/09/02 05:20:50;;;;;;;;;;;13.30;99.90;;;;;;5045144;28;19917;-76
2022/09/02 05:23:15;;;;;;;;;;;13.30;99.90;;;;;;5027566;28;19948;-76
2022/09/02 05:25:41;;;;;;;;;;;13.30;99.90;;;;;;5044163;28;20204;-75
2022/09/02 05:28:10;;;;;;;;;;;13.40;99.90;;;;;;5045249;28;20146;-75
2022/09/02 05:30:39;;;;;;;;;;;13.40;99.90;;;;;;5044336;28;20081;-75
2022/09/02 05:33:05;;;;;;;;;;;13.40;99.90;;;;;;5027180;28;19905;-75
2022/09/02 05:35:30;;;;;;;;;;;13.40;99.90;;;;;;5043790;28;19905;-76
2022/09/02 05:37:56;;;;;;;;;;;13.40;99.90;;;;;;5043664;28;19909;-75
2022/09/02 05:40:22;;;;;;;;;;;13.40;99.90;;;;;;5044383;28;19952;-75
2022/09/02 05:42:47;;;;;;;;;;;13.50;99.90;;;;;;5044673;28;20176;-76
2022/09/02 05:45:13;;;;;;;;;;;13.50;99.90;;;;;;5044930;28;19943;-75
2022/09/02 05:47:39;;;;;;;;;;;13.50;99.90;;;;;;5043688;28;19904;-75
2022/09/02 05:50:05;;;;;;;;;;;13.50;99.90;;;;;;5026890;28;19905;-75
2022/09/02 05:52:31;;;;;;;;;;;13.60;99.90;;;;;;5043800;28;20100;-75
2022/09/02 05:54:56;;;;;;;;;;;13.60;99.90;;;;;;5027015;28;19932;-76
2022/09/02 05:57:22;;;;;;;;;;;13.60;99.90;;;;;;5044598;28;20138;-75
2022/09/02 05:59:51;;;;;;;;;;;13.70;99.90;;;;;;5026969;28;19905;-75
2022/09/02 06:02:16;;;;;;;;;;;13.70;99.90;;;;;;5044680;28;19909;-75
2022/09/02 06:04:44;;;;;;;;;;;13.70;99.90;;;;;;5043958;28;20124;-75
2022/09/02 06:07:10;;;;;;;;;;;13.80;99.90;;;;;;5027070;28;19941;-75
2022/09/02 06:09:36;;;;;;;;;;;13.80;99.90;;;;;;5043299;28;19976;-75
2022/09/02 06:12:02;;;;;;;;;;;13.80;99.90;;;;;;5044367;28;19913;-76
2022/09/02 06:14:28;;;;;;;;;;;13.90;99.90;;;;;;5042950;28;19917;-75
2022/09/02 06:16:54;;;;;;;;;;;13.90;99.90;;;;;;5044377;28;20270;-75
2022/09/02 06:19:20;;;;;;;;;;;14.00;99.90;;;;;;5026473;28;19905;-75
2022/09/02 06:21:47;;;;;;;;;;;14.00;99.90;;;;;;5042993;28;19913;-75
2022/09/02 06:24:12;;;;;;;;;;;14.10;99.90;;;;;;5043150;28;19917;-76
2022/09/02 06:26:39;;;;;;;;;;;14.20;99.90;;;;;;5043471;28;19912;-76
2022/09/02 06:29:04;;;;;;;;;;;14.20;99.90;;;;;;5044563;28;19909;-76
2022/09/02 06:31:30;;;;;;;;;;;14.30;99.90;;;;;;5029158;28;19908;-75
2022/09/02 06:33:56;;;;;;;;;;;14.40;99.90;;;;;;5028367;28;20258;-75
2022/09/02 06:36:22;;;;;;;;;;;14.40;99.90;;;;;;5046012;28;19905;-74
2022/09/02 06:38:49;;;;;;;;;;;14.50;99.90;;;;;;5044462;28;19985;-75
2022/09/02 06:41:17;;;;;;;;;;;14.60;99.90;;;;;;5046254;28;19909;-74
2022/09/02 06:43:43;;;;;;;;;;;14.70;99.90;;;;;;5027946;28;19905;-74
2022/09/02 06:46:16;;;;;;;;;;;14.70;99.90;;;;;;5045899;28;19912;-74
2022/09/02 06:48:42;;;;;;;;;;;14.80;99.90;;;;;;5029208;28;20119;-74
2022/09/02 06:51:08;;;;;;;;;;;14.90;99.90;;;;;;5046058;28;19968;-75
2022/09/02 06:53:33;;;;;;;;;;;15.00;99.90;;;;;;5045449;28;19909;-74
2022/09/02 06:55:59;;;;;;;;;;;15.10;99.90;;;;;;5045719;28;19940;-75
2022/09/02 06:58:25;;;;;;;;;;;15.20;99.90;;;;;;5045567;28;19911;-74
2022/09/02 07:00:50;;;;;;;;;;;15.30;99.90;;;;;;5045531;28;19909;-75
2022/09/02 07:06:09;;;;;;;;;;;15.40;99.90;;;;;;5102037;27;19924;-75
2022/09/02 07:08:39;;;;;;;;;;;15.50;99.90;;;;;;5104413;28;19913;-75
2022/09/02 07:11:05;;;;;;;;;;;15.60;99.90;;;;;;5080473;28;19916;-75
2022/09/02 07:13:32;;;;;;;;;;;15.70;99.90;;;;;;5079988;28;20373;-75
2022/09/02 07:15:57;;;;;;;;;;;15.80;99.90;;;;;;5081406;28;19979;-75
2022/09/02 07:18:23;;;;;;;;;;;15.90;99.90;;;;;;5080346;28;19972;-75
2022/09/02 07:20:49;;;;;;;;;;;15.90;99.90;;;;;;5081712;28;19935;-75
2022/09/02 07:23:15;;;;;;;;;;;16.00;99.90;;;;;;5080294;28;20200;-74
2022/09/02 07:25:41;;;;;;;;;;;16.10;99.90;;;;;;5081323;28;19935;-75
2022/09/02 07:28:07;;;;;;;;;;;16.20;99.90;;;;;;5079987;28;19909;-75
2022/09/02 07:30:33;;;;;;;;;;;16.30;99.90;;;;;;5079017;28;20156;-75
2022/09/02 07:32:58;;;;;;;;;;;16.40;99.90;;;;;;5078558;28;19916;-74
2022/09/02 07:35:24;;;;;;;;;;;16.50;99.90;;;;;;5079439;28;20245;-74
2022/09/02 07:37:50;;;;;;;;;;;16.50;99.90;;;;;;5079454;28;20107;-74
2022/09/02 07:40:15;;;;;;;;;;;16.60;99.90;;;;;;5079565;28;19936;-75
2022/09/02 07:42:42;;;;;;;;;;;16.70;99.90;;;;;;5079546;28;19909;-75
2022/09/02 07:45:08;;;;;;;;;;;16.80;99.90;;;;;;5078324;28;20000;-75
2022/09/02 07:47:34;;;;;;;;;;;16.90;99.90;;;;;;5045482;28;19983;-74
2022/09/02 07:50:00;;;;;;;;;;;17.00;99.90;;;;;;5079288;28;19919;-74
2022/09/02 07:52:25;;;;;;;;;;;17.10;99.90;;;;;;5078229;28;19939;-75
2022/09/02 07:54:51;;;;;;;;;;;17.10;99.90;;;;;;5079495;28;19909;-75
2022/09/02 07:57:17;;;;;;;;;;;17.20;99.90;;;;;;5079092;28;19982;-74
2022/09/02 07:59:42;;;;;;;;;;;17.30;99.90;;;;;;5079209;28;19916;-74
2022/09/02 08:02:08;;;;;;;;;;;17.40;99.90;;;;;;5078045;28;20203;-74
2022/09/02 08:04:34;;;;;;;;;;;17.50;99.90;;;;;;5078644;28;20281;-74
2022/09/02 08:07:00;;;;;;;;;;;17.50;99.90;;;;;;5078606;28;19917;-74
2022/09/02 08:09:25;;;;;;;;;;;17.60;99.90;;;;;;5078902;28;20208;-74
2022/09/02 08:11:51;;;;;;;;;;;17.70;99.90;;;;;;5078761;28;20227;-74
2022/09/02 08:14:23;;;;;;;;;;;17.90;99.90;;;;;;5077559;28;19924;-74
2022/09/02 08:16:49;;;;;;;;;;;17.90;99.90;;;;;;5068232;28;19908;-74
2022/09/02 08:19:14;;;;;;;;;;;18.10;99.90;;;;;;5065704;28;19909;-74
2022/09/02 08:21:40;;;;;;;;;;;18.10;99.90;;;;;;5064251;28;19909;-74
2022/09/02 08:24:06;;;;;;;;;;;18.20;99.90;;;;;;5065519;28;20211;-74
2022/09/02 08:26:35;;;;;;;;;;;18.20;99.90;;;;;;5065593;28;19946;-74
2022/09/02 08:29:03;;;;;;;;;;;18.40;99.90;;;;;;5066477;28;20287;-74
2022/09/02 08:31:30;;;;;;;;;;;18.40;99.90;;;;;;5066732;28;19961;-75
2022/09/02 08:33:57;;;;;;;;;;;18.50;99.90;;;;;;5065197;28;19912;-74
2022/09/02 08:36:22;;;;;;;;;;;18.60;99.90;;;;;;5064940;28;19924;-74
2022/09/02 08:38:48;;;;;;;;;;;18.80;99.90;;;;;;5064952;28;19916;-74
2022/09/02 08:41:20;;;;;;;;;;;18.90;99.90;;;;;;5063397;28;19951;-74
2022/09/02 08:43:46;;;;;;;;;;;19.00;97.80;;;;;;5063574;28;19909;-74
2022/09/02 08:46:13;;;;;;;;;;;19.10;96.80;;;;;;5047138;28;19947;-73
2022/09/02 08:49:02;;;;;;;;;;;19.10;98.10;;;;;;5063728;28;19928;-74
2022/09/02 08:51:56;;;;;;;;;;;19.20;98.60;;;;;;5063683;28;19946;-74
2022/09/02 08:54:56;;;;;;;;;;;19.20;99.60;;;;;;5063516;28;19913;-73
2022/09/02 08:57:24;;;;;;;;;;;19.30;98.20;;;;;;5063769;28;20112;-74
2022/09/02 08:59:49;;;;;;;;;;;19.40;94.40;;;;;;5064634;28;19944;-74
2022/09/02 09:02:37;;;;;;;;;;;19.40;95.10;;;;;;5064637;28;19916;-74
2022/09/02 09:05:11;;;;;;;;;;;19.50;96.20;;;;;;5064299;28;19931;-74
2022/09/02 09:07:46;;;;;;;;;;;19.50;94.70;;;;;;5063410;28;20208;-74
2022/09/02 09:10:24;;;;;;;;;;;19.60;94.00;;;;;;5063351;28;19916;-74
2022/09/02 09:13:11;;;;;;;;;;;19.70;93.80;;;;;;5064503;28;20143;-74
2022/09/02 09:16:09;;;;;;;;;;;19.70;92.50;;;;;;5064469;28;19920;-74
2022/09/02 09:18:39;;;;;;;;;;;19.80;87.50;;;;;;5096716;28;20143;-74
2022/09/02 09:21:09;;;;;;;;;;;19.90;87.70;;;;;;5062942;28;19999;-74
2022/09/02 09:23:38;;;;;;;;;;;20.00;84.70;;;;;;5062941;28;19908;-74
2022/09/02 09:26:12;;;;;;;;;;;20.00;87.10;;;;;;5063027;28;19939;-74
2022/09/02 09:28:48;;;;;;;;;;;20.00;88.00;;;;;;5062168;28;20186;-74
2022/09/02 09:31:18;;;;;;;;;;;20.10;83.80;;;;;;5046235;28;20139;-75
2022/09/02 09:34:03;;;;;;;;;;;20.10;84.70;;;;;;5062673;28;19998;-74
2022/09/02 09:36:41;;;;;;;;;;;20.20;81.50;;;;;;5063644;28;19976;-74
2022/09/02 09:39:26;;;;;;;;;;;20.30;80.40;;;;;;5063703;28;20139;-75
2022/09/02 09:41:55;;;;;;;;;;;20.30;80.40;;;;;;5062506;28;20116;-74
2022/09/02 09:44:51;;;;;;;;;;;20.40;73.90;;;;;;5062324;28;19969;-74
2022/09/02 09:47:24;;;;;;;;;;;20.40;75.00;;;;;;5091666;28;20198;-75
2022/09/02 09:50:10;;;;;;;;;;;20.40;78.80;;;;;;5045914;28;19920;-75
2022/09/02 09:52:36;;;;;;;;;;;20.50;74.50;;;;;;5045783;28;19966;-75
2022/09/02 09:55:10;;;;;;;;;;;20.50;74.40;;;;;;5062374;28;19995;-75
2022/09/02 09:57:36;;;;;;;;;;;20.60;70.30;;;;;;5063585;28;19916;-75
2022/09/02 10:00:30;;;;;;;;;;;20.70;67.40;;;;;;5045825;28;20212;-74
2022/09/02 10:02:58;;;;;;;;;;;20.80;65.90;;;;;;5063207;28;19912;-75
2022/09/02 10:05:24;;;;;;;;;;;20.90;66.50;;;;;;5045310;28;19917;-74
2022/09/02 10:08:21;;;;;;;;;;;21.00;66.80;;;;;;5063215;28;19951;-74
2022/09/02 10:11:19;;;;;;;;;;;21.10;65.30;;;;;;5062850;28;19916;-74
2022/09/02 10:13:45;;;;;;;;;;;21.20;66.10;;;;;;5063045;28;19913;-74
2022/09/02 10:16:17;;;;;;;;;;;21.30;62.00;;;;;;5062012;28;19916;-74
2022/09/02 10:18:52;;;;;;;;;;;21.20;65.60;;;;;;5063185;28;19917;-74
2022/09/02 10:21:39;;;;;;;;;;;21.20;61.40;;;;;;5061593;28;19916;-74
2022/09/02 10:24:26;;;;;;;;;;;21.30;58.50;;;;;;5062725;28;19917;-74
2022/09/02 10:26:53;;;;;;;;;;;21.30;55.40;;;;;;5062004;28;20152;-75
2022/09/02 10:29:25;;;;;;;;;;;21.30;56.20;;;;;;5061776;28;19909;-74
2022/09/02 10:32:42;;;;;;;;;;;21.30;57.60;;;;;;5062958;28;19984;-74
2022/09/02 10:35:40;;;;;;;;;;;21.40;57.30;;;;;;5061809;28;19974;-74
2022/09/02 10:38:28;;;;;;;;;;;21.50;56.30;;;;;;5061168;28;20195;-74
2022/09/02 10:41:12;;;;;;;;;;;21.60;55.60;;;;;;5062580;28;19923;-74
2022/09/02 10:44:06;;;;;;;;;;;21.70;54.50;;;;;;5062613;28;19908;-74
2022/09/02 10:46:38;;;;;;;;;;;21.70;55.80;;;;;;5062706;28;19959;-74
2022/09/02 10:49:29;;;;;;;;;;;21.80;56.60;;;;;;5061502;28;19936;-74
2022/09/02 10:52:02;;;;;;;;;;;21.80;58.00;;;;;;5084796;28;19986;-74
2022/09/02 10:54:52;;;;;;;;;;;22.00;59.70;;;;;;5062403;28;20215;-74
2022/09/02 10:57:30;;;;;;;;;;;22.10;59.90;;;;;;5061604;28;21305;-74
2022/09/02 11:00:09;;;;;;;;;;;22.30;60.40;;;;;;5061494;28;19909;-74
2022/09/02 11:03:03;;;;;;;;;;;22.40;58.50;;;;;;5061949;28;19940;-74
2022/09/02 11:05:38;;;;;;;;;;;22.40;61.40;;;;;;5061108;28;19917;-73
2022/09/02 11:08:46;;;;;;;;;;;22.50;61.40;;;;;;5061849;28;19913;-74
2022/09/02 11:11:44;;;;;;;;;;;22.70;60.30;;;;;;5085411;28;20196;-75
2022/09/02 11:14:21;;;;;;;;;;;23.00;61.70;;;;;;5047377;28;19916;-75
2022/09/02 11:17:03;;;;;;;;;;;23.10;61.70;;;;;;5062649;28;19921;-74
2022/09/02 11:19:42;;;;;;;;;;;23.20;61.80;;;;;;5062626;28;19986;-74
2022/09/02 11:22:25;;;;;;;;;;;23.30;62.40;;;;;;5061195;28;19950;-74
2022/09/02 11:25:13;;;;;;;;;;;23.30;62.40;;;;;;5060997;28;20444;-75
2022/09/02 11:27:57;;;;;;;;;;;23.30;62.90;;;;;;5061288;28;19909;-75
2022/09/02 11:30:25;;;;;;;;;;;23.20;64.30;;;;;;5061371;28;19939;-72
2022/09/02 11:33:13;;;;;;;;;;;23.20;65.20;;;;;;5044105;28;19915;-72
2022/09/02 11:35:38;;;;;;;;;;;23.20;62.80;;;;;;5060932;28;19909;-72
2022/09/02 11:38:06;;;;;;;;;;;23.10;62.00;;;;;;5044149;28;20242;-72
2022/09/02 11:40:38;;;;;;;;;;;23.00;61.80;;;;;;5060864;28;19924;-75
2022/09/02 11:43:14;;;;;;;;;;;22.90;62.30;;;;;;5060743;28;20211;-75
2022/09/02 11:45:55;;;;;;;;;;;22.90;64.00;;;;;;5060859;28;19912;-75
2022/09/02 11:48:49;;;;;;;;;;;23.00;64.60;;;;;;5061994;28;20223;-72
2022/09/02 11:51:22;;;;;;;;;;;23.20;65.20;;;;;;5061230;28;19909;-72
2022/09/02 11:53:48;;;;;;;;;;;23.50;63.50;;;;;;5064606;28;20212;-73
2022/09/02 11:56:16;;;;;;;;;;;23.60;63.30;;;;;;5064631;28;19931;-73
2022/09/02 11:58:44;;;;;;;;;;;23.70;62.10;;;;;;5064593;28;19916;-72
2022/09/02 12:01:21;;;;;;;;;;;23.80;58.60;;;;;;5064558;28;19912;-73
2022/09/02 12:03:58;;;;;;;;;;;23.80;58.30;;;;;;5065307;28;19947;-73
2022/09/02 12:06:23;;;;;;;;;;;23.60;63.50;;;;;;5065367;28;19909;-73
2022/09/02 12:08:49;;;;;;;;;;;23.50;61.00;;;;;;5064281;28;19986;-73
2022/09/02 12:11:40;;;;;;;;;;;23.50;60.30;;;;;;5065469;28;19908;-73
2022/09/02 12:14:25;;;;;;;;;;;23.70;63.50;;;;;;5065142;28;19946;-73
2022/09/02 12:17:04;;;;;;;;;;;23.70;58.40;;;;;;5065332;28;19931;-73
2022/09/02 12:19:41;;;;;;;;;;;23.40;56.80;;;;;;5064215;28;19952;-73
2022/09/02 12:22:16;;;;;;;;;;;23.30;55.80;;;;;;5064069;28;20310;-73
2022/09/02 12:25:00;;;;;;;;;;;23.40;61.00;;;;;;5064937;28;19912;-73
2022/09/02 12:27:27;;;;;;;;;;;23.90;64.80;;;;;;5064061;28;19909;-73
2022/09/02 12:29:53;;;;;;;;;;;24.90;61.70;;;;;;5064002;28;19916;-73
2022/09/02 12:32:50;;;;;;;;;;;25.60;56.30;;;;;;5064034;28;19909;-73
2022/09/02 12:35:40;;;;;;;;;;;26.20;54.50;;;;;;5065061;28;19908;-73
2022/09/02 12:38:09;;;;;;;;;;;27.00;50.70;;;;;;5064010;28;19948;-73
2022/09/02 12:41:15;;;;;;;;;;;27.40;47.80;;;;;;5064756;28;19963;-73
2022/09/02 12:43:43;;;;;;;;;;;27.80;48.10;;;;;;5063406;28;19951;-73
2022/09/02 12:46:34;;;;;;;;;;;28.20;50.90;;;;;;5064811;28;19917;-73
2022/09/02 12:49:17;;;;;;;;;;;28.70;45.20;;;;;;5064727;28;20234;-74
2022/09/02 12:52:02;;;;;;;;;;;29.10;45.30;;;;;;5063865;28;19916;-74
2022/09/02 12:54:37;;;;;;;;;;;29.50;42.80;;;;;;5064512;28;20146;-73
2022/09/02 12:57:04;;;;;;;;;;;30.20;43.00;;;;;;5064609;28;20011;-74
2022/09/02 12:59:30;;;;;;;;;;;30.60;43.20;;;;;;5063478;28;19931;-73
2022/09/02 13:02:07;;;;;;;;;;;31.10;41.50;;;;;;5064427;28;20031;-74
2022/09/02 13:05:14;;;;;;;;;;;31.30;39.00;;;;;;5064062;28;20112;-73
2022/09/02 13:07:58;;;;;;;;;;;31.20;41.90;;;;;;5064138;28;19940;-73
2022/09/02 13:10:31;;;;;;;;;;;31.40;40.20;;;;;;5064481;28;19913;-73
2022/09/02 13:12:56;;;;;;;;;;;31.40;37.00;;;;;;5062988;28;19916;-73
2022/09/02 13:16:05;;;;;;;;;;;31.40;37.90;;;;;;5064153;28;19917;-74
2022/09/02 13:18:58;;;;;;;;;;;31.10;36.80;;;;;;5062770;28;19976;-73
2022/09/02 13:21:42;;;;;;;;;;;31.30;37.80;;;;;;5063143;28;19913;-73
2022/09/02 13:24:11;;;;;;;;;;;31.10;37.30;;;;;;5062722;28;19912;-73
2022/09/02 13:27:00;;;;;;;;;;;30.90;37.00;;;;;;5064086;28;19917;-73
2022/09/02 13:30:03;;;;;;;;;;;31.40;37.60;;;;;;5063078;28;19909;-72
2022/09/02 13:32:29;;;;;;;;;;;32.30;37.30;;;;;;5064009;28;19916;-73
2022/09/02 13:34:56;;;;;;;;;;;33.40;35.20;;;;;;5062682;28;19909;-73
2022/09/02 13:37:41;;;;;;;;;;;34.40;34.00;;;;;;5062639;28;19954;-74
2022/09/02 13:40:23;;;;;;;;;;;35.30;34.50;;;;;;5062611;28;19916;-74
2022/09/02 13:42:50;;;;;;;;;;;36.10;30.20;;;;;;5062703;28;19909;-74
2022/09/02 13:45:18;;;;;;;;;;;36.70;29.90;;;;;;5062700;28;19991;-74
2022/09/02 13:47:44;;;;;;;;;;;37.00;30.90;;;;;;5065322;28;19951;-75
2022/09/02 13:50:12;;;;;;;;;;;37.50;28.20;;;;;;5066863;28;19916;-75
2022/09/02 13:52:39;;;;;;;;;;;37.50;29.00;;;;;;5066823;28;20208;-75
2022/09/02 13:55:04;;;;;;;;;;;38.60;29.20;;;;;;5031739;28;20222;-75
2022/09/02 13:57:30;;;;;;;;;;;39.90;30.00;;;;;;5062506;28;19944;-75
2022/09/02 13:59:56;;;;;;;;;;;41.20;27.10;;;;;;5063476;28;19918;-75
2022/09/02 14:02:26;;;;;;;;;;;42.00;26.20;;;;;;5062430;28;19908;-76
2022/09/02 14:05:03;;;;;;;;;;;42.60;26.10;;;;;;5063119;28;19916;-76
2022/09/02 14:07:40;;;;;;;;;;;43.50;26.20;;;;;;5062110;28;19909;-75
2022/09/02 14:10:07;;;;;;;;;;;44.10;24.20;;;;;;5062255;28;19909;-75
2022/09/02 14:12:33;;;;;;;;;;;43.50;24.50;;;;;;5062330;28;20158;-76
2022/09/02 14:14:59;;;;;;;;;;;43.80;25.60;;;;;;5062565;28;19923;-76
2022/09/02 14:17:25;;;;;;;;;;;44.20;24.40;;;;;;5061954;28;19909;-75
2022/09/02 14:19:52;;;;;;;;;;;44.50;24.60;;;;;;5062028;28;19931;-74
2022/09/02 14:22:27;;;;;;;;;;;44.80;24.20;;;;;;5044985;28;19924;-74
2022/09/02 14:24:53;;;;;;;;;;;45.10;24.60;;;;;;5061718;28;19920;-74
2022/09/02 14:27:20;;;;;;;;;;;45.60;24.80;;;;;;5061914;28;20166;-74
2022/09/02 14:29:46;;;;;;;;;;;45.90;24.10;;;;;;5061708;28;19944;-75
2022/09/02 14:32:26;;;;;;;;;;;46.40;23.50;;;;;;5061721;28;20484;-74
2022/09/02 14:35:17;;;;;;;;;;;46.40;22.40;;;;;;5061405;28;19932;-75
2022/09/02 14:38:01;;;;;;;;;;;46.50;22.60;;;;;;5062493;28;19917;-75
2022/09/02 14:40:37;;;;;;;;;;;46.30;22.70;;;;;;5062532;28;19966;-74